createdAt,value
2018-05-03T00:00:40.895Z,12.10
2018-05-03T00:01:40.765Z,12.12
2018-05-03T00:03:33.619Z,12.22
2018-05-03T00:04:33.599Z,12.18
2018-05-03T00:06:26.458Z,12.06
2018-05-03T00:07:26.433Z,12.00
2018-05-03T00:09:19.283Z,12.09
2018-05-03T00:10:19.265Z,12.07
2018-05-03T00:12:12.124Z,12.04
2018-05-03T00:13:12.091Z,12.09
2018-05-03T00:15:04.944Z,12.20
2018-05-03T00:16:04.924Z,12.10
2018-05-03T00:17:57.788Z,12.20
2018-05-03T00:18:57.754Z,12.21
2018-05-03T00:20:50.605Z,12.09
2018-05-03T00:21:50.587Z,12.20
2018-05-03T00:23:43.446Z,12.18
2018-05-03T00:24:43.417Z,12.17
2018-05-03T00:26:36.263Z,12.17
2018-05-03T00:27:36.244Z,12.13
2018-05-03T00:29:29.104Z,12.20
2018-05-03T00:30:29.072Z,12.17
2018-05-03T00:32:21.926Z,12.15
2018-05-03T00:33:21.913Z,12.25
2018-05-03T00:35:14.770Z,12.09
2018-05-03T00:36:14.741Z,12.04
2018-05-03T00:38:07.587Z,12.12
2018-05-03T00:39:07.567Z,12.15
2018-05-03T00:41:00.424Z,12.21
2018-05-03T00:42:00.396Z,12.18
2018-05-03T00:43:53.242Z,12.21
2018-05-03T00:44:53.223Z,12.09
2018-05-03T00:46:46.663Z,12.20
2018-05-03T00:47:46.050Z,12.06
2018-05-03T00:49:38.905Z,12.18
2018-05-03T00:50:38.888Z,12.15
2018-05-03T00:52:31.751Z,12.25
2018-05-03T00:53:31.720Z,12.22
2018-05-03T00:55:24.573Z,12.20
2018-05-03T00:56:24.552Z,12.22
2018-05-03T00:58:17.407Z,12.09
2018-05-03T00:59:17.378Z,12.09
2018-05-03T01:01:10.232Z,12.09
2018-05-03T01:02:10.209Z,12.13
2018-05-03T01:04:03.076Z,12.07
2018-05-03T01:05:03.042Z,12.09
2018-05-03T01:06:55.890Z,12.12
2018-05-03T01:07:55.870Z,12.12
2018-05-03T01:09:48.737Z,12.09
2018-05-03T01:10:48.700Z,11.95
2018-05-03T01:12:41.555Z,12.02
2018-05-03T01:13:41.530Z,12.02
2018-05-03T01:15:34.398Z,12.02
2018-05-03T01:16:34.370Z,11.97
2018-05-03T01:18:27.217Z,12.07
2018-05-03T01:19:27.196Z,12.00
2018-05-03T01:21:20.061Z,12.10
2018-05-03T01:22:20.029Z,12.00
2018-05-03T01:24:12.880Z,12.10
2018-05-03T01:25:12.860Z,12.03
2018-05-03T01:27:05.718Z,12.12
2018-05-03T01:28:05.690Z,12.06
2018-05-03T01:29:58.533Z,11.99
2018-05-03T01:30:58.519Z,12.07
2018-05-03T01:32:51.379Z,12.00
2018-05-03T01:33:51.403Z,11.97
2018-05-03T01:35:44.198Z,11.95
2018-05-03T01:36:44.178Z,11.94
2018-05-03T01:38:37.040Z,11.88
2018-05-03T01:39:37.007Z,11.91
2018-05-03T01:41:29.857Z,12.00
2018-05-03T01:42:29.837Z,11.95
2018-05-03T01:44:22.695Z,11.99
2018-05-03T01:45:22.668Z,11.94
2018-05-03T01:47:15.517Z,11.80
2018-05-03T01:48:15.498Z,11.73
2018-05-03T01:50:08.362Z,11.80
2018-05-03T01:51:08.327Z,11.70
2018-05-03T01:53:01.175Z,11.72
2018-05-03T01:54:01.157Z,11.75
2018-05-03T01:55:54.019Z,11.81
2018-05-03T01:56:53.988Z,11.73
2018-05-03T01:58:46.839Z,11.75
2018-05-03T01:59:46.816Z,11.70
2018-05-03T02:01:39.672Z,11.62
2018-05-03T02:02:39.648Z,11.73
2018-05-03T02:04:32.496Z,11.60
2018-05-03T02:05:32.476Z,11.60
2018-05-03T02:07:25.340Z,11.66
2018-05-03T02:08:25.305Z,11.70
2018-05-03T02:10:18.155Z,11.60
2018-05-03T02:11:18.131Z,11.66
2018-05-03T02:13:10.994Z,11.66
2018-05-03T02:14:10.960Z,11.62
2018-05-03T02:16:03.811Z,11.47
2018-05-03T02:17:03.788Z,11.45
2018-05-03T02:18:56.648Z,11.43
2018-05-03T02:19:56.623Z,11.47
2018-05-03T02:21:49.470Z,11.41
2018-05-03T02:22:49.454Z,11.33
2018-05-03T02:24:42.310Z,11.35
2018-05-03T02:25:42.278Z,11.41
2018-05-03T02:27:35.142Z,11.32
2018-05-03T02:28:35.128Z,11.29
2018-05-03T02:30:27.971Z,11.30
2018-05-03T02:31:27.948Z,11.25
2018-05-03T02:33:20.794Z,11.26
2018-05-03T02:34:20.775Z,11.29
2018-05-03T02:36:13.637Z,11.35
2018-05-03T02:37:13.603Z,11.27
2018-05-03T02:39:06.452Z,11.36
2018-05-03T02:40:06.431Z,11.43
2018-05-03T02:41:59.297Z,11.41
2018-05-03T02:42:59.263Z,11.41
2018-05-03T02:44:52.115Z,11.41
2018-05-03T02:45:52.102Z,11.26
2018-05-03T02:47:44.952Z,11.30
2018-05-03T02:48:44.921Z,11.23
2018-05-03T02:50:37.770Z,11.27
2018-05-03T02:51:37.749Z,11.27
2018-05-03T02:53:30.610Z,11.32
2018-05-03T02:54:30.579Z,11.23
2018-05-03T02:56:23.428Z,11.30
2018-05-03T02:57:23.406Z,11.29
2018-05-03T02:59:16.273Z,11.26
2018-05-03T03:00:16.236Z,11.29
2018-05-03T03:02:09.092Z,11.23
2018-05-03T03:03:09.066Z,11.30
2018-05-03T03:05:01.927Z,11.26
2018-05-03T03:06:01.899Z,11.23
2018-05-03T03:07:54.749Z,11.23
2018-05-03T03:08:54.728Z,11.23
2018-05-03T03:10:47.590Z,11.29
2018-05-03T03:11:47.557Z,11.23
2018-05-03T03:13:40.403Z,11.17
2018-05-03T03:14:40.382Z,11.23
2018-05-03T03:16:33.248Z,11.19
2018-05-03T03:17:33.215Z,11.23
2018-05-03T03:19:26.065Z,11.23
2018-05-03T03:20:26.041Z,11.33
2018-05-03T03:22:18.908Z,11.41
2018-05-03T03:23:18.865Z,11.32
2018-05-03T03:25:11.716Z,11.43
2018-05-03T03:26:11.694Z,11.47
2018-05-03T03:28:04.557Z,11.41
2018-05-03T03:29:04.523Z,11.50
2018-05-03T03:30:57.368Z,11.48
2018-05-03T03:31:57.348Z,11.41
2018-05-03T03:33:50.206Z,11.47
2018-05-03T03:34:50.173Z,11.47
2018-05-03T03:36:43.022Z,11.37
2018-05-03T03:37:43.001Z,11.32
2018-05-03T03:39:35.862Z,11.35
2018-05-03T03:40:35.827Z,11.35
2018-05-03T03:42:28.674Z,11.33
2018-05-03T03:43:28.653Z,11.32
2018-05-03T03:45:21.514Z,11.36
2018-05-03T03:46:21.500Z,11.29
2018-05-03T03:48:14.330Z,11.27
2018-05-03T03:49:14.305Z,11.25
2018-05-03T03:51:07.171Z,11.26
2018-05-03T03:52:07.138Z,11.23
2018-05-03T03:53:59.997Z,11.23
2018-05-03T03:54:59.977Z,11.30
2018-05-03T03:56:52.840Z,11.22
2018-05-03T03:57:52.805Z,11.32
2018-05-03T03:59:45.657Z,11.26
2018-05-03T04:00:45.640Z,11.26
2018-05-03T04:02:38.499Z,11.23
2018-05-03T04:03:38.464Z,11.14
2018-05-03T04:05:31.311Z,11.12
2018-05-03T04:06:31.295Z,11.08
2018-05-03T04:08:24.151Z,11.15
2018-05-03T04:09:24.119Z,11.10
2018-05-03T04:11:16.966Z,11.11
2018-05-03T04:12:16.947Z,11.15
2018-05-03T04:14:09.808Z,11.12
2018-05-03T04:15:09.772Z,11.17
2018-05-03T04:17:02.619Z,11.14
2018-05-03T04:18:02.601Z,11.10
2018-05-03T04:19:55.459Z,11.14
2018-05-03T04:20:55.444Z,11.23
2018-05-03T04:22:48.280Z,11.26
2018-05-03T04:23:48.258Z,11.25
2018-05-03T04:25:41.696Z,11.30
2018-05-03T04:26:41.085Z,11.25
2018-05-03T04:28:33.936Z,11.33
2018-05-03T04:29:33.915Z,11.41
2018-05-03T04:31:26.785Z,11.40
2018-05-03T04:32:26.746Z,11.40
2018-05-03T04:34:19.594Z,11.50
2018-05-03T04:35:19.576Z,11.48
2018-05-03T04:37:12.437Z,11.48
2018-05-03T04:38:12.403Z,11.45
2018-05-03T04:40:05.251Z,11.47
2018-05-03T04:41:05.235Z,11.44
2018-05-03T04:42:58.094Z,11.48
2018-05-03T04:43:58.066Z,11.45
2018-05-03T04:45:50.916Z,11.59
2018-05-03T04:46:50.921Z,11.60
2018-05-03T04:48:43.757Z,11.65
2018-05-03T04:49:43.729Z,11.72
2018-05-03T04:51:36.586Z,11.69
2018-05-03T04:52:36.566Z,11.69
2018-05-03T04:54:29.430Z,11.69
2018-05-03T04:55:29.401Z,11.72
2018-05-03T04:57:22.256Z,11.60
2018-05-03T04:58:22.234Z,11.41
2018-05-03T05:00:15.100Z,11.57
2018-05-03T05:01:15.066Z,11.44
2018-05-03T05:03:07.917Z,11.55
2018-05-03T05:04:07.907Z,11.68
2018-05-03T05:06:00.762Z,11.75
2018-05-03T05:07:00.734Z,11.70
2018-05-03T05:08:53.588Z,11.60
2018-05-03T05:09:53.566Z,11.72
2018-05-03T05:11:46.436Z,11.77
2018-05-03T05:12:46.397Z,11.95
2018-05-03T05:14:39.259Z,11.97
2018-05-03T05:15:39.234Z,11.97
2018-05-03T05:17:32.102Z,11.94
2018-05-03T05:18:32.063Z,11.83
2018-05-03T05:20:24.916Z,11.99
2018-05-03T05:21:24.898Z,12.12
2018-05-03T05:23:17.769Z,12.24
2018-05-03T05:24:17.824Z,12.28
2018-05-03T05:26:10.586Z,12.20
2018-05-03T05:27:10.564Z,12.07
2018-05-03T05:29:03.435Z,11.97
2018-05-03T05:30:03.399Z,12.00
2018-05-03T05:31:56.256Z,12.17
2018-05-03T05:32:56.240Z,12.31
2018-05-03T05:34:49.107Z,12.42
2018-05-03T05:35:49.071Z,12.45
2018-05-03T05:37:41.927Z,12.54
2018-05-03T05:38:41.967Z,12.65
2018-05-03T05:40:34.770Z,12.43
2018-05-03T05:41:34.742Z,12.28
2018-05-03T05:43:27.595Z,12.58
2018-05-03T05:44:27.575Z,12.64
2018-05-03T05:46:20.441Z,12.67
2018-05-03T05:47:20.409Z,12.67
2018-05-03T05:49:13.339Z,12.70
2018-05-03T05:50:13.245Z,12.85
2018-05-03T05:52:06.114Z,12.98
2018-05-03T05:53:06.081Z,12.94
2018-05-03T05:54:58.942Z,12.93
2018-05-03T05:55:58.926Z,12.98
2018-05-03T05:57:51.869Z,13.01
2018-05-03T05:58:51.759Z,13.00
2018-05-03T06:00:44.613Z,12.97
2018-05-03T06:01:44.593Z,13.04
2018-05-03T06:03:37.462Z,13.04
2018-05-03T06:04:37.432Z,13.11
2018-05-03T06:06:30.284Z,13.03
2018-05-03T06:07:30.274Z,13.03
2018-05-03T06:09:23.133Z,13.22
2018-05-03T06:10:23.173Z,13.12
2018-05-03T06:12:16.041Z,13.23
2018-05-03T06:13:15.936Z,13.28
2018-05-03T06:15:08.806Z,13.30
2018-05-03T06:16:08.773Z,13.15
2018-05-03T06:18:01.627Z,13.31
2018-05-03T06:19:01.608Z,13.31
2018-05-03T06:20:54.477Z,13.28
2018-05-03T06:21:54.446Z,13.49
2018-05-03T06:23:47.299Z,13.59
2018-05-03T06:24:47.281Z,13.60
2018-05-03T06:26:40.149Z,13.41
2018-05-03T06:27:40.118Z,13.47
2018-05-03T06:29:32.977Z,13.59
2018-05-03T06:30:32.960Z,13.74
2018-05-03T06:32:25.818Z,13.59
2018-05-03T06:33:25.795Z,13.71
2018-05-03T06:35:18.650Z,13.65
2018-05-03T06:36:18.631Z,13.74
2018-05-03T06:38:11.499Z,13.83
2018-05-03T06:39:11.468Z,13.78
2018-05-03T06:41:04.325Z,13.74
2018-05-03T06:42:04.307Z,13.70
2018-05-03T06:43:57.178Z,13.60
2018-05-03T06:44:57.144Z,13.53
2018-05-03T06:46:50.008Z,13.74
2018-05-03T06:47:49.985Z,13.86
2018-05-03T06:49:42.853Z,13.99
2018-05-03T06:50:42.824Z,13.97
2018-05-03T06:52:35.682Z,14.04
2018-05-03T06:53:35.665Z,14.10
2018-05-03T06:55:28.530Z,13.49
2018-05-03T06:56:28.502Z,13.78
2018-05-03T06:58:21.357Z,13.99
2018-05-03T06:59:21.341Z,14.12
2018-05-03T07:01:14.218Z,14.33
2018-05-03T07:02:14.184Z,14.25
2018-05-03T07:04:07.061Z,14.29
2018-05-03T07:05:07.023Z,14.29
2018-05-03T07:06:59.892Z,14.12
2018-05-03T07:07:59.863Z,14.11
2018-05-03T07:09:52.739Z,14.48
2018-05-03T07:10:52.700Z,14.35
2018-05-03T07:12:45.572Z,14.55
2018-05-03T07:13:45.545Z,14.77
2018-05-03T07:15:38.401Z,14.47
2018-05-03T07:16:38.381Z,14.45
2018-05-03T07:18:31.252Z,14.48
2018-05-03T07:19:31.218Z,14.89
2018-05-03T07:21:24.079Z,14.59
2018-05-03T07:22:24.063Z,14.29
2018-05-03T07:24:16.929Z,14.78
2018-05-03T07:25:16.898Z,14.70
2018-05-03T07:27:09.756Z,14.84
2018-05-03T07:28:09.738Z,15.07
2018-05-03T07:30:02.611Z,14.68
2018-05-03T07:31:02.581Z,14.62
2018-05-03T07:32:55.437Z,15.02
2018-05-03T07:33:55.422Z,15.22
2018-05-03T07:35:48.301Z,14.86
2018-05-03T07:36:48.271Z,14.88
2018-05-03T07:38:41.134Z,15.04
2018-05-03T07:39:41.114Z,15.44
2018-05-03T07:41:33.977Z,15.35
2018-05-03T07:42:33.955Z,15.35
2018-05-03T07:44:26.832Z,15.14
2018-05-03T07:45:26.797Z,15.51
2018-05-03T07:47:19.672Z,15.44
2018-05-03T07:48:19.642Z,15.39
2018-05-03T07:50:12.506Z,15.70
2018-05-03T07:51:12.489Z,15.51
2018-05-03T07:53:05.363Z,15.59
2018-05-03T07:54:05.336Z,15.90
2018-05-03T07:55:58.194Z,15.51
2018-05-03T07:56:58.180Z,15.62
2018-05-03T07:58:51.097Z,15.28
2018-05-03T07:59:51.026Z,15.52
2018-05-03T08:01:43.890Z,15.54
2018-05-03T08:02:43.872Z,15.43
2018-05-03T08:04:36.745Z,15.75
2018-05-03T08:05:36.720Z,15.65
2018-05-03T08:07:29.573Z,15.82
2018-05-03T08:08:29.557Z,15.80
2018-05-03T08:10:22.432Z,15.79
2018-05-03T08:11:22.401Z,16.10
2018-05-03T08:13:15.264Z,15.77
2018-05-03T08:14:15.247Z,15.79
2018-05-03T08:16:08.123Z,15.91
2018-05-03T08:17:08.097Z,15.82
2018-05-03T08:19:00.952Z,15.80
2018-05-03T08:20:00.942Z,15.88
2018-05-03T08:21:53.813Z,16.21
2018-05-03T08:22:53.785Z,16.05
2018-05-03T08:24:46.643Z,15.94
2018-05-03T08:25:46.628Z,16.53
2018-05-03T08:27:39.505Z,16.51
2018-05-03T08:28:39.502Z,16.58
2018-05-03T08:30:32.344Z,16.36
2018-05-03T08:31:32.329Z,16.41
2018-05-03T08:33:25.218Z,16.17
2018-05-03T08:34:25.187Z,16.31
2018-05-03T08:36:18.049Z,16.74
2018-05-03T08:37:18.038Z,16.57
2018-05-03T08:39:10.906Z,16.61
2018-05-03T08:40:10.882Z,16.46
2018-05-03T08:42:03.744Z,16.87
2018-05-03T08:43:03.725Z,17.14
2018-05-03T08:44:56.604Z,17.33
2018-05-03T08:45:56.577Z,16.90
2018-05-03T08:47:49.442Z,16.58
2018-05-03T08:48:49.430Z,17.04
2018-05-03T08:50:42.301Z,17.49
2018-05-03T08:51:42.274Z,17.31
2018-05-03T08:53:35.138Z,17.78
2018-05-03T08:54:35.125Z,17.83
2018-05-03T08:56:28.005Z,17.79
2018-05-03T08:57:27.972Z,17.29
2018-05-03T08:59:20.846Z,17.63
2018-05-03T09:00:20.826Z,18.03
2018-05-03T09:02:13.701Z,17.56
2018-05-03T09:03:13.674Z,17.54
2018-05-03T09:05:06.541Z,17.42
2018-05-03T09:06:06.533Z,16.90
2018-05-03T09:07:59.407Z,16.61
2018-05-03T09:08:59.382Z,16.83
2018-05-03T09:10:52.249Z,17.60
2018-05-03T09:11:52.232Z,16.53
2018-05-03T09:13:45.111Z,17.72
2018-05-03T09:14:45.085Z,17.30
2018-05-03T09:16:37.951Z,17.01
2018-05-03T09:17:37.934Z,17.33
2018-05-03T09:19:30.816Z,18.43
2018-05-03T09:20:30.794Z,18.26
2018-05-03T09:22:23.693Z,18.08
2018-05-03T09:23:23.647Z,18.41
2018-05-03T09:25:16.523Z,18.78
2018-05-03T09:26:16.523Z,18.37
2018-05-03T09:28:09.369Z,19.19
2018-05-03T09:29:09.352Z,19.37
2018-05-03T09:31:02.233Z,18.83
2018-05-03T09:32:02.214Z,19.34
2018-05-03T09:33:55.078Z,19.26
2018-05-03T09:34:55.068Z,18.66
2018-05-03T09:36:47.948Z,19.69
2018-05-03T09:37:47.923Z,19.55
2018-05-03T09:39:40.798Z,18.71
2018-05-03T09:40:40.787Z,19.51
2018-05-03T09:42:33.665Z,20.00
2018-05-03T09:43:33.643Z,19.56
2018-05-03T09:45:26.511Z,19.67
2018-05-03T09:46:26.499Z,19.09
2018-05-03T09:48:19.376Z,19.44
2018-05-03T09:49:19.352Z,19.58
2018-05-03T09:51:12.222Z,19.26
2018-05-03T09:52:12.210Z,18.77
2018-05-03T09:54:05.091Z,18.73
2018-05-03T09:55:05.067Z,19.11
2018-05-03T09:56:57.934Z,19.15
2018-05-03T09:57:57.922Z,18.86
2018-05-03T09:59:50.805Z,19.27
2018-05-03T10:00:50.779Z,19.31
2018-05-03T10:02:43.645Z,19.14
2018-05-03T10:03:43.636Z,19.44
2018-05-03T10:05:36.515Z,19.14
2018-05-03T10:06:36.491Z,19.16
2018-05-03T10:08:29.360Z,18.68
2018-05-03T10:09:29.353Z,19.21
2018-05-03T10:11:22.242Z,19.24
2018-05-03T10:12:22.213Z,19.41
2018-05-03T10:14:15.084Z,18.77
2018-05-03T10:15:15.073Z,18.44
2018-05-03T10:17:07.955Z,19.56
2018-05-03T10:18:07.932Z,19.51
2018-05-03T10:20:00.802Z,19.92
2018-05-03T10:21:00.779Z,19.58
2018-05-03T10:22:53.672Z,19.92
2018-05-03T10:23:53.646Z,18.78
2018-05-03T10:25:46.523Z,20.47
2018-05-03T10:26:46.504Z,20.74
2018-05-03T10:28:39.393Z,20.65
2018-05-03T10:29:39.369Z,21.11
2018-05-03T10:31:32.238Z,21.27
2018-05-03T10:32:32.229Z,20.51
2018-05-03T10:34:25.112Z,20.60
2018-05-03T10:35:25.088Z,20.34
2018-05-03T10:37:17.955Z,20.67
2018-05-03T10:38:17.947Z,20.99
2018-05-03T10:40:10.831Z,20.19
2018-05-03T10:41:10.810Z,19.82
2018-05-03T10:43:03.683Z,20.37
2018-05-03T10:44:03.672Z,20.10
2018-05-03T10:45:56.552Z,19.66
2018-05-03T10:46:56.529Z,19.84
2018-05-03T10:48:49.418Z,20.02
2018-05-03T10:49:49.393Z,20.26
2018-05-03T10:52:08.850Z,19.29
2018-05-03T10:52:42.254Z,19.30
2018-05-03T10:54:35.133Z,20.74
2018-05-03T10:55:35.115Z,20.69
2018-05-03T10:57:28.051Z,21.91
2018-05-03T10:58:27.981Z,21.95
2018-05-03T11:00:20.863Z,23.31
2018-05-03T11:01:20.848Z,22.68
2018-05-03T11:03:13.732Z,22.93
2018-05-03T11:04:13.714Z,22.90
2018-05-03T11:06:06.591Z,22.29
2018-05-03T11:07:06.582Z,23.62
2018-05-03T11:08:59.466Z,21.85
2018-05-03T11:09:59.454Z,21.39
2018-05-03T11:11:52.332Z,22.47
2018-05-03T11:12:52.329Z,21.09
2018-05-03T11:14:45.218Z,21.09
2018-05-03T11:15:45.199Z,22.73
2018-05-03T11:17:38.078Z,21.73
2018-05-03T11:18:38.073Z,22.65
2018-05-03T11:20:30.964Z,21.61
2018-05-03T11:21:30.945Z,21.76
2018-05-03T11:23:23.824Z,21.02
2018-05-03T11:24:23.816Z,21.14
2018-05-03T11:26:16.700Z,20.62
2018-05-03T11:27:16.693Z,20.77
2018-05-03T11:29:09.567Z,22.66
2018-05-03T11:30:09.560Z,21.21
2018-05-03T11:32:02.445Z,21.80
2018-05-03T11:33:02.426Z,22.26
2018-05-03T11:34:55.303Z,21.76
2018-05-03T11:35:55.294Z,21.39
2018-05-03T11:37:48.189Z,22.20
2018-05-03T11:38:48.161Z,23.96
2018-05-03T11:40:41.042Z,22.38
2018-05-03T11:41:41.033Z,21.70
2018-05-03T11:43:33.916Z,22.10
2018-05-03T11:44:33.900Z,22.11
2018-05-03T11:46:26.782Z,22.48
2018-05-03T11:47:26.768Z,23.08
2018-05-03T11:49:19.664Z,23.83
2018-05-03T11:50:19.640Z,22.48
2018-05-03T11:52:12.518Z,24.99
2018-05-03T11:53:12.511Z,26.10
2018-05-03T11:55:05.400Z,25.16
2018-05-03T11:56:05.382Z,24.78
2018-05-03T11:57:58.259Z,24.36
2018-05-03T11:58:58.255Z,24.14
2018-05-03T12:00:51.143Z,21.67
2018-05-03T12:01:51.148Z,21.35
2018-05-03T12:03:44.016Z,20.84
2018-05-03T12:04:44.007Z,21.07
2018-05-03T12:06:36.895Z,22.54
2018-05-03T12:07:36.871Z,21.00
2018-05-03T12:09:29.817Z,23.39
2018-05-03T12:10:29.741Z,23.98
2018-05-03T12:12:22.630Z,23.44
2018-05-03T12:13:22.609Z,21.57
2018-05-03T12:15:15.484Z,21.37
2018-05-03T12:16:15.487Z,21.83
2018-05-03T12:18:08.413Z,21.55
2018-05-03T12:19:08.356Z,21.51
2018-05-03T12:21:01.237Z,22.06
2018-05-03T12:22:01.217Z,22.91
2018-05-03T12:23:54.111Z,24.05
2018-05-03T12:24:54.087Z,23.98
2018-05-03T12:26:46.968Z,24.26
2018-05-03T12:27:46.958Z,24.48
2018-05-03T12:29:39.844Z,24.47
2018-05-03T12:30:39.831Z,24.63
2018-05-03T12:32:32.780Z,23.23
2018-05-03T12:33:32.702Z,22.93
2018-05-03T12:35:25.590Z,23.12
2018-05-03T12:36:25.573Z,22.53
2018-05-03T12:38:18.460Z,21.75
2018-05-03T12:39:18.455Z,21.70
2018-05-03T12:41:11.339Z,22.69
2018-05-03T12:42:11.324Z,21.93
2018-05-03T12:44:04.195Z,21.75
2018-05-03T12:45:04.183Z,22.11
2018-05-03T12:46:57.072Z,22.75
2018-05-03T12:47:57.046Z,22.68
2018-05-03T12:49:49.922Z,22.13
2018-05-03T12:50:49.913Z,22.18
2018-05-03T12:52:42.793Z,22.53
2018-05-03T12:53:42.775Z,22.35
2018-05-03T12:55:35.650Z,23.40
2018-05-03T12:56:35.643Z,23.66
2018-05-03T12:58:28.530Z,24.68
2018-05-03T12:59:28.508Z,22.57
2018-05-03T13:01:21.386Z,22.87
2018-05-03T13:02:21.378Z,23.13
2018-05-03T13:04:14.262Z,23.69
2018-05-03T13:05:14.243Z,24.53
2018-05-03T13:07:07.128Z,23.46
2018-05-03T13:08:07.116Z,22.53
2018-05-03T13:09:59.994Z,22.81
2018-05-03T13:10:59.985Z,22.66
2018-05-03T13:12:52.852Z,21.88
2018-05-03T13:13:52.842Z,21.58
2018-05-03T13:15:45.730Z,20.90
2018-05-03T13:16:45.707Z,21.61
2018-05-03T13:18:38.585Z,21.75
2018-05-03T13:19:38.575Z,22.13
2018-05-03T13:21:31.466Z,21.93
2018-05-03T13:22:31.439Z,22.80
2018-05-03T13:24:24.308Z,21.60
2018-05-03T13:25:24.297Z,22.28
2018-05-03T13:27:17.187Z,22.08
2018-05-03T13:28:17.169Z,22.38
2018-05-03T13:30:10.110Z,22.15
2018-05-03T13:31:10.031Z,21.58
2018-05-03T13:33:02.925Z,22.33
2018-05-03T13:34:02.895Z,22.72
2018-05-03T13:35:55.763Z,22.14
2018-05-03T13:36:55.756Z,21.61
2018-05-03T13:38:48.638Z,21.80
2018-05-03T13:39:48.615Z,21.89
2018-05-03T13:41:41.488Z,20.85
2018-05-03T13:42:41.476Z,21.37
2018-05-03T13:44:34.352Z,21.37
2018-05-03T13:45:34.335Z,21.09
2018-05-03T13:47:27.215Z,21.25
2018-05-03T13:48:27.192Z,21.07
2018-05-03T13:50:20.075Z,21.36
2018-05-03T13:51:20.055Z,21.00
2018-05-03T13:53:12.920Z,19.77
2018-05-03T13:54:12.912Z,20.48
2018-05-03T13:56:05.789Z,20.29
2018-05-03T13:57:05.767Z,21.09
2018-05-03T13:58:58.632Z,20.77
2018-05-03T13:59:58.624Z,20.85
2018-05-03T14:01:51.502Z,21.39
2018-05-03T14:02:51.480Z,21.80
2018-05-03T14:04:44.350Z,22.23
2018-05-03T14:05:44.337Z,22.35
2018-05-03T14:07:37.220Z,21.75
2018-05-03T14:08:37.194Z,21.52
2018-05-03T14:10:30.080Z,22.50
2018-05-03T14:11:30.051Z,22.66
2018-05-03T14:13:22.932Z,22.25
2018-05-03T14:14:22.907Z,21.93
2018-05-03T14:16:15.776Z,21.88
2018-05-03T14:17:15.763Z,22.04
2018-05-03T14:19:08.647Z,21.00
2018-05-03T14:20:08.623Z,20.39
2018-05-03T14:22:01.500Z,20.44
2018-05-03T14:23:01.485Z,20.40
2018-05-03T14:24:54.364Z,20.95
2018-05-03T14:25:54.341Z,21.00
2018-05-03T14:27:47.279Z,20.92
2018-05-03T14:28:47.204Z,21.09
2018-05-03T14:30:40.085Z,20.92
2018-05-03T14:31:40.060Z,21.21
2018-05-03T14:33:32.930Z,21.17
2018-05-03T14:34:32.916Z,20.77
2018-05-03T14:36:25.791Z,21.18
2018-05-03T14:37:25.771Z,21.07
2018-05-03T14:39:18.706Z,21.60
2018-05-03T14:40:18.627Z,21.32
2018-05-03T14:42:11.504Z,20.85
2018-05-03T14:43:11.484Z,21.03
2018-05-03T14:45:04.352Z,20.99
2018-05-03T14:46:04.338Z,20.92
2018-05-03T14:47:57.242Z,20.78
2018-05-03T14:48:57.193Z,20.85
2018-05-03T14:50:50.068Z,21.33
2018-05-03T14:51:50.054Z,21.50
2018-05-03T14:53:42.929Z,20.99
2018-05-03T14:54:42.907Z,20.78
2018-05-03T14:56:35.777Z,20.72
2018-05-03T14:57:35.765Z,21.03
2018-05-03T14:59:28.643Z,20.84
2018-05-03T15:00:28.619Z,21.07
2018-05-03T15:02:21.493Z,21.36
2018-05-03T15:03:21.481Z,20.87
2018-05-03T15:05:14.358Z,21.00
2018-05-03T15:06:14.331Z,21.00
2018-05-03T15:08:07.200Z,20.41
2018-05-03T15:09:07.186Z,20.81
2018-05-03T15:11:00.066Z,20.78
2018-05-03T15:12:00.042Z,20.32
2018-05-03T15:13:52.916Z,20.97
2018-05-03T15:14:52.899Z,20.63
2018-05-03T15:16:45.849Z,20.37
2018-05-03T15:17:45.755Z,20.37
2018-05-03T15:19:38.621Z,20.44
2018-05-03T15:20:38.608Z,20.75
2018-05-03T15:22:31.490Z,20.66
2018-05-03T15:23:31.464Z,20.70
2018-05-03T15:25:24.338Z,20.84
2018-05-03T15:26:24.320Z,20.84
2018-05-03T15:28:17.190Z,20.43
2018-05-03T15:29:17.172Z,20.59
2018-05-03T15:31:10.045Z,20.62
2018-05-03T15:32:10.029Z,20.58
2018-05-03T15:34:02.909Z,20.60
2018-05-03T15:35:02.881Z,20.48
2018-05-03T15:36:55.743Z,20.82
2018-05-03T15:37:55.728Z,20.69
2018-05-03T15:39:48.612Z,20.56
2018-05-03T15:40:48.588Z,20.65
2018-05-03T15:42:41.454Z,20.11
2018-05-03T15:43:41.439Z,19.89
2018-05-03T15:45:34.313Z,20.06
2018-05-03T15:46:34.287Z,20.14
2018-05-03T15:48:27.154Z,20.06
2018-05-03T15:49:27.140Z,20.21
2018-05-03T15:51:20.031Z,19.99
2018-05-03T15:52:19.996Z,20.06
2018-05-03T15:54:12.860Z,20.34
2018-05-03T15:55:12.844Z,20.29
2018-05-03T15:57:05.733Z,20.65
2018-05-03T15:58:05.690Z,20.32
2018-05-03T15:59:58.560Z,20.02
2018-05-03T16:00:58.543Z,20.00
2018-05-03T16:02:51.425Z,20.14
2018-05-03T16:03:51.451Z,19.84
2018-05-03T16:05:44.267Z,19.91
2018-05-03T16:06:44.252Z,20.28
2018-05-03T16:08:37.143Z,20.13
2018-05-03T16:09:37.101Z,20.14
2018-05-03T16:11:29.974Z,20.25
2018-05-03T16:12:29.967Z,20.14
2018-05-03T16:14:22.903Z,20.32
2018-05-03T16:15:22.810Z,20.62
2018-05-03T16:17:15.673Z,20.44
2018-05-03T16:18:15.660Z,20.03
2018-05-03T16:20:08.531Z,19.85
2018-05-03T16:21:08.509Z,19.95
2018-05-03T16:23:01.378Z,20.10
2018-05-03T16:24:01.363Z,20.18
2018-05-03T16:25:54.235Z,20.32
2018-05-03T16:26:54.210Z,20.22
2018-05-03T16:28:47.143Z,20.25
2018-05-03T16:29:47.065Z,20.11
2018-05-03T16:31:39.950Z,20.18
2018-05-03T16:32:39.919Z,19.92
2018-05-03T16:34:32.857Z,19.88
2018-05-03T16:35:32.763Z,19.69
2018-05-03T16:37:25.646Z,20.03
2018-05-03T16:38:25.622Z,20.13
2018-05-03T16:40:18.481Z,19.89
2018-05-03T16:41:18.508Z,20.00
2018-05-03T16:43:11.351Z,20.18
2018-05-03T16:44:11.319Z,20.19
2018-05-03T16:46:04.186Z,20.40
2018-05-03T16:47:04.168Z,20.26
2018-05-03T16:48:57.045Z,20.13
2018-05-03T16:49:57.018Z,20.14
2018-05-03T16:51:49.881Z,19.96
2018-05-03T16:52:49.866Z,20.09
2018-05-03T16:54:42.746Z,20.13
2018-05-03T16:55:42.716Z,20.24
2018-05-03T16:57:35.588Z,20.16
2018-05-03T16:58:35.568Z,20.11
2018-05-03T17:00:28.442Z,19.92
2018-05-03T17:01:28.412Z,19.89
2018-05-03T17:03:21.279Z,19.85
2018-05-03T17:04:21.272Z,19.82
2018-05-03T17:06:14.141Z,19.77
2018-05-03T17:07:14.114Z,19.94
2018-05-03T17:09:06.980Z,19.92
2018-05-03T17:10:06.964Z,20.16
2018-05-03T17:11:59.839Z,20.21
2018-05-03T17:12:59.812Z,20.25
2018-05-03T17:14:52.679Z,20.11
2018-05-03T17:15:52.665Z,20.16
2018-05-03T17:17:45.540Z,19.85
2018-05-03T17:18:45.510Z,19.96
2018-05-03T17:20:38.375Z,20.21
2018-05-03T17:21:38.384Z,20.16
2018-05-03T17:23:31.313Z,19.86
2018-05-03T17:24:31.284Z,19.79
2018-05-03T17:26:24.158Z,19.99
2018-05-03T17:27:24.173Z,20.16
2018-05-03T17:29:17.128Z,19.92
2018-05-03T17:30:17.095Z,19.73
2018-05-03T17:32:10.034Z,19.77
2018-05-03T17:33:10.013Z,19.69
2018-05-03T17:35:03.125Z,19.66
2018-05-03T17:36:02.965Z,19.70
2018-05-03T17:37:55.884Z,19.44
2018-05-03T17:38:55.856Z,19.54
2018-05-03T17:40:48.913Z,19.55
2018-05-03T17:41:48.683Z,19.51
2018-05-03T17:43:41.664Z,19.41
2018-05-03T17:44:41.763Z,19.59
2018-05-03T17:46:34.500Z,19.70
2018-05-03T17:47:34.385Z,19.66
2018-05-03T17:49:27.258Z,19.64
2018-05-03T17:50:27.237Z,19.54
2018-05-03T17:52:20.110Z,19.36
2018-05-03T17:53:20.084Z,19.47
2018-05-03T17:55:12.949Z,19.40
2018-05-03T17:56:12.932Z,19.39
2018-05-03T17:58:05.809Z,19.16
2018-05-03T17:59:05.784Z,19.27
2018-05-03T18:00:58.681Z,19.21
2018-05-03T18:01:58.657Z,19.15
2018-05-03T18:03:51.515Z,19.07
2018-05-03T18:04:51.484Z,18.84
2018-05-03T18:06:44.353Z,18.99
2018-05-03T18:07:44.335Z,18.90
2018-05-03T18:09:37.254Z,18.66
2018-05-03T18:10:37.276Z,18.70
2018-05-03T18:12:30.079Z,18.66
2018-05-03T18:13:30.061Z,18.68
2018-05-03T18:15:22.948Z,18.56
2018-05-03T18:16:22.974Z,18.66
2018-05-03T18:18:15.771Z,18.55
2018-05-03T18:19:15.757Z,18.45
2018-05-03T18:21:08.621Z,18.41
2018-05-03T18:22:08.602Z,18.41
2018-05-03T18:24:01.458Z,18.37
2018-05-03T18:25:01.440Z,18.29
2018-05-03T18:26:54.318Z,18.33
2018-05-03T18:27:54.293Z,18.28
2018-05-03T18:29:47.147Z,18.13
2018-05-03T18:30:47.131Z,18.08
2018-05-03T18:32:40.055Z,17.97